createdAt,value
2023-04-14T00:02:36.875Z,8.65
2023-04-14T00:05:32.475Z,9.27
2023-04-14T00:08:21.043Z,9.48
2023-04-14T00:11:11.002Z,8.45
2023-04-14T00:14:03.310Z,8.43
2023-04-14T00:16:52.185Z,8.52
2023-04-14T00:19:41.050Z,9.55
2023-04-14T00:22:29.475Z,9.77
2023-04-14T00:25:18.550Z,7.63
2023-04-14T00:28:07.059Z,8.05
2023-04-14T00:30:56.394Z,7.18
2023-04-14T00:33:46.560Z,9.57
2023-04-14T00:36:35.114Z,9.65
2023-04-14T00:39:23.484Z,8.57
2023-04-14T00:42:13.121Z,8.93
2023-04-14T00:45:02.460Z,8.95
2023-04-14T00:47:52.755Z,9.65
2023-04-14T00:50:41.714Z,6.65
2023-04-14T00:53:31.283Z,8.38
2023-04-14T00:56:21.444Z,7.78
2023-04-14T00:59:11.330Z,8.55
2023-04-14T01:02:01.675Z,8.35
2023-04-14T01:04:54.654Z,7.55
2023-04-14T01:07:43.827Z,6.50
2023-04-14T01:10:41.422Z,10.57
2023-04-14T01:13:54.374Z,8.07
2023-04-14T01:16:45.725Z,8.35
2023-04-14T01:20:11.454Z,7.80
2023-04-14T01:23:11.905Z,7.45
2023-04-14T01:26:22.445Z,8.43
2023-04-14T01:29:44.889Z,7.93
2023-04-14T01:32:36.562Z,6.75
2023-04-14T01:35:46.973Z,6.18
2023-04-14T01:38:39.450Z,5.60
2023-04-14T01:41:29.302Z,7.75
2023-04-14T01:44:20.021Z,7.18
2023-04-14T01:47:12.930Z,8.70
2023-04-14T01:50:04.209Z,5.45
2023-04-14T01:52:55.933Z,4.82
2023-04-14T01:55:48.484Z,3.92
2023-04-14T01:58:39.200Z,3.42
2023-04-14T02:01:29.670Z,3.45
2023-04-14T02:04:21.453Z,3.40
2023-04-14T02:07:13.410Z,3.13
2023-04-14T02:10:06.715Z,3.88
2023-04-14T02:12:58.779Z,2.58
2023-04-14T02:15:51.868Z,2.60
2023-04-14T02:18:42.122Z,3.50
2023-04-14T02:21:33.709Z,4.95
2023-04-14T02:24:24.046Z,3.15
2023-04-14T02:27:26.583Z,4.25
2023-04-14T02:30:19.923Z,3.78
2023-04-14T02:33:10.906Z,5.03
2023-04-14T02:36:10.279Z,4.78
2023-04-14T02:39:05.345Z,3.60
2023-04-14T02:42:05.888Z,3.55
2023-04-14T02:45:07.521Z,3.63
2023-04-14T02:48:01.370Z,3.92
2023-04-14T02:50:53.786Z,3.55
2023-04-14T02:53:46.170Z,2.92
2023-04-14T02:56:54.724Z,3.35
2023-04-14T02:59:48.364Z,3.85
2023-04-14T03:02:39.756Z,2.88
2023-04-14T03:05:30.960Z,2.80
2023-04-14T03:08:29.793Z,3.42
2023-04-14T03:11:21.882Z,3.72
2023-04-14T03:14:12.583Z,3.08
2023-04-14T03:17:03.126Z,3.70
2023-04-14T03:19:52.944Z,3.63
2023-04-14T03:22:44.255Z,4.35
2023-04-14T03:25:40.292Z,3.40
2023-04-14T03:28:37.951Z,3.63
2023-04-14T03:31:34.095Z,4.05
2023-04-14T03:34:28.297Z,3.92
2023-04-14T03:37:18.409Z,4.40
2023-04-14T03:40:11.581Z,3.17
2023-04-14T03:43:05.340Z,5.20
2023-04-14T03:45:54.812Z,3.53
2023-04-14T03:48:46.777Z,4.45
2023-04-14T03:51:40.809Z,2.85
2023-04-14T03:54:32.604Z,3.65
2023-04-14T03:57:23.406Z,3.60
2023-04-14T04:00:14.168Z,3.67
2023-04-14T04:03:03.429Z,4.07
2023-04-14T04:05:53.807Z,3.25
2023-04-14T04:08:44.021Z,3.15
2023-04-14T04:11:34.880Z,3.40
2023-04-14T04:14:26.394Z,4.20
2023-04-14T04:17:19.686Z,3.63
2023-04-14T04:20:13.204Z,3.63
2023-04-14T04:23:07.356Z,3.17
2023-04-14T04:25:57.877Z,4.72
2023-04-14T04:28:55.356Z,3.88
2023-04-14T04:31:45.002Z,3.83
2023-04-14T04:34:35.161Z,3.97
2023-04-14T04:37:28.852Z,3.47
2023-04-14T04:40:17.879Z,3.88
2023-04-14T04:43:07.247Z,5.07
2023-04-14T04:45:59.844Z,3.10
2023-04-14T04:48:54.960Z,3.33
2023-04-14T04:51:47.369Z,3.45
2023-04-14T04:54:37.985Z,3.40
2023-04-14T04:57:28.273Z,4.93
2023-04-14T05:00:16.941Z,3.70
2023-04-14T05:03:05.891Z,6.35
2023-04-14T05:05:54.765Z,3.33
2023-04-14T05:08:43.598Z,4.07
2023-04-14T05:11:33.481Z,4.90
2023-04-14T05:14:22.258Z,3.70
2023-04-14T05:17:11.714Z,3.88
2023-04-14T05:20:00.241Z,4.22
2023-04-14T05:22:49.743Z,3.35
2023-04-14T05:25:38.526Z,3.17
2023-04-14T05:28:27.970Z,3.45
2023-04-14T05:31:16.589Z,4.68
2023-04-14T05:34:05.223Z,3.42
2023-04-14T05:36:53.560Z,3.42
2023-04-14T05:39:42.804Z,3.55
2023-04-14T05:42:31.637Z,3.97
2023-04-14T05:45:20.023Z,3.63
2023-04-14T05:48:08.997Z,3.60
2023-04-14T05:50:58.480Z,2.80
2023-04-14T05:53:47.275Z,3.08
2023-04-14T05:56:36.469Z,3.55
2023-04-14T05:59:25.762Z,4.25
2023-04-14T06:02:14.364Z,3.72
2023-04-14T06:05:04.951Z,3.30
2023-04-14T06:07:54.434Z,4.47
2023-04-14T06:10:42.621Z,4.68
2023-04-14T06:13:34.833Z,3.13
2023-04-14T06:16:25.118Z,3.00
2023-04-14T06:19:13.823Z,2.70
2023-04-14T06:22:02.023Z,3.47
2023-04-14T06:24:50.803Z,3.72
2023-04-14T06:27:40.058Z,4.05
2023-04-14T06:30:28.776Z,3.83
2023-04-14T06:33:17.841Z,3.40
2023-04-14T06:36:06.896Z,3.72
2023-04-14T06:38:57.237Z,4.00
2023-04-14T06:41:45.558Z,4.68
2023-04-14T06:44:35.572Z,5.05
2023-04-14T06:47:25.792Z,4.53
2023-04-14T06:50:14.659Z,4.13
2023-04-14T06:53:05.914Z,4.28
2023-04-14T06:56:00.746Z,4.20
2023-04-14T06:58:49.051Z,2.55
2023-04-14T07:01:58.949Z,3.35
2023-04-14T07:05:07.737Z,3.90
2023-04-14T07:07:56.704Z,3.35
2023-04-14T07:10:45.504Z,2.92
2023-04-14T07:13:35.658Z,3.25
2023-04-14T07:16:24.722Z,2.67
2023-04-14T07:19:13.440Z,2.17
2023-04-14T07:22:02.117Z,2.08
2023-04-14T07:24:51.944Z,3.20
2023-04-14T07:27:49.786Z,3.35
2023-04-14T07:30:45.843Z,3.03
2023-04-14T07:33:35.975Z,3.30
2023-04-14T07:36:25.463Z,3.15
2023-04-14T07:39:13.815Z,3.78
2023-04-14T07:42:02.584Z,3.20
2023-04-14T07:44:50.854Z,3.60
2023-04-14T07:47:39.773Z,3.75
2023-04-14T07:50:28.670Z,3.45
2023-04-14T07:53:17.320Z,3.72
2023-04-14T07:56:06.236Z,2.67
2023-04-14T07:58:55.378Z,2.80
2023-04-14T08:01:44.630Z,2.50
2023-04-14T08:04:34.027Z,3.25
2023-04-14T08:07:22.867Z,2.47
2023-04-14T08:10:11.365Z,2.50
2023-04-14T08:13:01.595Z,3.53
2023-04-14T08:15:51.960Z,3.17
2023-04-14T08:18:41.643Z,2.97
2023-04-14T08:21:30.915Z,1.90
2023-04-14T08:24:19.302Z,2.20
2023-04-14T08:27:08.178Z,2.20
2023-04-14T08:29:56.997Z,1.73
2023-04-14T08:32:48.097Z,3.20
2023-04-14T08:35:42.473Z,2.17
2023-04-14T08:38:32.212Z,2.00
2023-04-14T08:41:21.694Z,1.40
2023-04-14T08:44:11.084Z,1.60
2023-04-14T08:47:00.828Z,1.40
2023-04-14T08:50:04.349Z,1.55
2023-04-14T08:52:59.676Z,2.28
2023-04-14T08:55:48.535Z,2.67
2023-04-14T08:58:38.201Z,2.28
2023-04-14T09:01:34.301Z,2.35
2023-04-14T09:04:24.653Z,1.92
2023-04-14T09:07:14.297Z,1.80
2023-04-14T09:10:03.777Z,1.80
2023-04-14T09:12:53.714Z,1.60
2023-04-14T09:15:43.140Z,1.92
2023-04-14T09:18:31.718Z,1.70
2023-04-14T09:21:29.232Z,1.63
2023-04-14T09:24:34.496Z,1.40
2023-04-14T09:27:23.343Z,1.70
2023-04-14T09:30:12.888Z,1.98
2023-04-14T09:33:08.315Z,1.40
2023-04-14T09:35:57.609Z,1.48
2023-04-14T09:38:45.961Z,1.50
2023-04-14T09:41:34.730Z,1.58
2023-04-14T09:44:23.647Z,1.50
2023-04-14T09:47:16.305Z,1.33
2023-04-14T09:50:05.894Z,1.55
2023-04-14T09:52:54.882Z,2.92
2023-04-14T09:55:50.809Z,1.50
2023-04-14T09:58:43.754Z,1.80
2023-04-14T10:01:34.682Z,1.67
2023-04-14T10:04:24.764Z,1.80
2023-04-14T10:07:13.705Z,2.17
2023-04-14T10:10:07.845Z,1.75
2023-04-14T10:12:56.601Z,1.83
2023-04-14T10:15:45.214Z,2.20
2023-04-14T10:18:33.881Z,1.65
2023-04-14T10:21:23.419Z,2.40
2023-04-14T10:24:13.054Z,1.88
2023-04-14T10:27:03.505Z,1.70
2023-04-14T10:29:53.215Z,2.08
2023-04-14T10:32:44.576Z,3.17
2023-04-14T10:35:43.227Z,2.55
2023-04-14T10:38:46.630Z,2.67
2023-04-14T10:41:44.349Z,3.05
2023-04-14T10:44:35.269Z,2.10
2023-04-14T10:47:25.431Z,3.28
2023-04-14T10:50:18.691Z,2.75
2023-04-14T10:53:09.588Z,2.65
2023-04-14T10:56:03.359Z,2.63
2023-04-14T10:58:59.152Z,2.63
2023-04-14T11:01:55.082Z,2.25
2023-04-14T11:05:06.194Z,2.70
2023-04-14T11:08:03.187Z,2.78
2023-04-14T11:11:02.182Z,2.30
2023-04-14T11:14:10.748Z,2.45
2023-04-14T11:17:04.370Z,2.40
2023-04-14T11:19:55.429Z,2.33
2023-04-14T11:22:46.080Z,2.50
2023-04-14T11:25:34.683Z,2.08
2023-04-14T11:28:37.063Z,3.10
2023-04-14T11:31:27.934Z,3.40
2023-04-14T11:34:16.207Z,3.17
2023-04-14T11:37:06.800Z,2.63
2023-04-14T11:39:55.278Z,1.40
2023-04-14T11:42:46.873Z,1.42
2023-04-14T11:45:35.517Z,1.20
2023-04-14T11:48:24.425Z,1.30
2023-04-14T11:51:13.725Z,0.40
2023-04-14T11:54:02.374Z,0.40
2023-04-14T11:56:51.285Z,0.20
2023-04-14T11:59:45.927Z,0.73
2023-04-14T12:02:36.292Z,0.20
2023-04-14T12:05:31.829Z,0.20
2023-04-14T12:08:24.496Z,0.20
2023-04-14T12:11:17.700Z,0.43
2023-04-14T12:14:06.070Z,0.30
2023-04-14T12:16:54.575Z,0.52
2023-04-14T12:19:45.014Z,0.80
2023-04-14T12:22:33.929Z,0.50
2023-04-14T12:25:22.984Z,0.40
2023-04-14T12:28:18.712Z,0.45
2023-04-14T12:31:08.290Z,0.50
2023-04-14T12:34:07.120Z,0.40
2023-04-14T12:36:56.731Z,0.20
2023-04-14T12:39:52.881Z,0.70
2023-04-14T12:42:49.585Z,0.40
2023-04-14T12:45:47.776Z,1.23
2023-04-14T12:48:47.124Z,0.32
2023-04-14T12:51:40.195Z,0.35
2023-04-14T12:54:52.227Z,0.20
2023-04-14T12:57:41.397Z,0.55
2023-04-14T13:00:30.710Z,0.30
2023-04-14T13:03:20.517Z,0.30
2023-04-14T13:06:12.731Z,0.20
2023-04-14T13:09:01.744Z,0.20
2023-04-14T13:11:50.280Z,0.30
2023-04-14T13:14:39.382Z,0.20
2023-04-14T13:17:28.894Z,0.40
2023-04-14T13:20:17.874Z,0.20
2023-04-14T13:23:07.630Z,0.20
2023-04-14T13:25:56.720Z,1.25
2023-04-14T13:28:45.160Z,0.20
2023-04-14T13:31:34.487Z,0.20
2023-04-14T13:34:23.875Z,0.20
2023-04-14T13:37:12.857Z,0.30
2023-04-14T13:40:01.918Z,0.20
2023-04-14T13:42:51.842Z,0.28
2023-04-14T13:45:41.132Z,0.25
2023-04-14T13:48:31.744Z,0.63
2023-04-14T13:51:23.544Z,0.20
2023-04-14T13:54:11.879Z,0.50
2023-04-14T13:57:01.255Z,0.52
2023-04-14T13:59:50.905Z,0.50
2023-04-14T14:02:40.406Z,0.40
2023-04-14T14:05:29.483Z,0.45
2023-04-14T14:08:18.632Z,0.30
2023-04-14T14:11:08.436Z,0.20
2023-04-14T14:13:57.535Z,0.38
2023-04-14T14:16:46.541Z,0.22
2023-04-14T14:19:35.769Z,0.40
2023-04-14T14:22:25.107Z,0.20
2023-04-14T14:25:20.366Z,0.30
2023-04-14T14:28:10.364Z,0.30
2023-04-14T14:30:58.931Z,0.30
2023-04-14T14:33:47.800Z,0.70
2023-04-14T14:36:37.091Z,0.40
2023-04-14T14:39:25.812Z,0.30
2023-04-14T14:42:14.106Z,0.38
2023-04-14T14:45:03.960Z,0.30
2023-04-14T14:47:52.883Z,0.40
2023-04-14T14:50:41.664Z,0.45
2023-04-14T14:53:32.094Z,1.15
2023-04-14T14:56:24.042Z,0.60
2023-04-14T14:59:13.046Z,0.30
2023-04-14T15:02:01.789Z,0.40
2023-04-14T15:04:50.608Z,0.52
2023-04-14T15:07:39.875Z,0.30
2023-04-14T15:10:29.194Z,0.40
2023-04-14T15:13:17.469Z,0.40
2023-04-14T15:16:06.384Z,0.20
2023-04-14T15:18:55.225Z,1.05
2023-04-14T15:21:44.540Z,0.20
2023-04-14T15:24:33.151Z,0.20
2023-04-14T15:27:21.935Z,0.20
2023-04-14T15:30:11.478Z,0.35
2023-04-14T15:32:59.968Z,0.22
2023-04-14T15:35:48.796Z,0.28
2023-04-14T15:38:37.159Z,0.30
2023-04-14T15:41:26.817Z,0.85
2023-04-14T15:44:16.212Z,0.85
2023-04-14T15:47:05.409Z,0.20
2023-04-14T15:50:10.063Z,0.82
2023-04-14T15:53:01.931Z,0.30
2023-04-14T15:55:51.356Z,0.30
2023-04-14T15:58:40.041Z,0.20
2023-04-14T16:01:28.948Z,0.30
2023-04-14T16:04:18.130Z,0.40
2023-04-14T16:07:07.369Z,0.20
2023-04-14T16:09:56.388Z,0.50
2023-04-14T16:12:45.594Z,0.40
2023-04-14T16:15:36.267Z,0.85
2023-04-14T16:18:25.185Z,0.40
2023-04-14T16:21:14.858Z,0.63
2023-04-14T16:24:04.166Z,0.90
2023-04-14T16:26:52.912Z,1.17
2023-04-14T16:29:42.179Z,1.30
2023-04-14T16:32:30.726Z,0.80
2023-04-14T16:35:19.520Z,0.95
2023-04-14T16:38:09.070Z,0.80
2023-04-14T16:40:59.544Z,0.40
2023-04-14T16:43:48.847Z,1.65
2023-04-14T16:46:37.965Z,0.63
2023-04-14T16:49:26.278Z,0.70
2023-04-14T16:52:16.164Z,0.45
2023-04-14T16:55:05.838Z,0.75
2023-04-14T16:57:54.818Z,0.50
2023-04-14T17:00:43.845Z,0.70
2023-04-14T17:03:33.499Z,0.73
2023-04-14T17:06:22.651Z,1.02
2023-04-14T17:09:12.132Z,0.70
2023-04-14T17:12:00.745Z,0.40
2023-04-14T17:14:49.929Z,0.90
2023-04-14T17:17:38.705Z,0.35
2023-04-14T17:20:27.857Z,0.30
2023-04-14T17:23:17.395Z,0.50
2023-04-14T17:26:06.891Z,1.38
2023-04-14T17:28:56.709Z,0.50
2023-04-14T17:31:46.286Z,1.08
2023-04-14T17:34:35.864Z,1.05
2023-04-14T17:37:25.755Z,0.40
2023-04-14T17:40:16.009Z,0.95
2023-04-14T17:43:08.112Z,0.73
2023-04-14T17:45:57.343Z,0.30
2023-04-14T17:48:46.938Z,0.75
2023-04-14T17:51:36.277Z,0.95
2023-04-14T17:54:25.927Z,0.60
2023-04-14T17:57:14.956Z,0.68
2023-04-14T18:00:04.816Z,0.55
2023-04-14T18:03:01.620Z,0.57
2023-04-14T18:05:50.764Z,1.83
2023-04-14T18:08:39.756Z,0.77
2023-04-14T18:11:28.218Z,0.77
2023-04-14T18:14:17.126Z,0.90
2023-04-14T18:17:06.824Z,1.30
2023-04-14T18:19:58.907Z,0.98
2023-04-14T18:22:47.830Z,0.70
2023-04-14T18:28:29.942Z,0.77
2023-04-14T18:31:19.160Z,0.73
2023-04-14T18:34:09.451Z,1.73
2023-04-14T18:36:58.508Z,1.48
2023-04-14T18:39:47.879Z,2.08
2023-04-14T18:42:37.503Z,1.17
2023-04-14T18:45:26.444Z,0.43
2023-04-14T18:48:16.211Z,1.98
2023-04-14T18:51:08.225Z,2.08
2023-04-14T18:53:56.916Z,1.70
2023-04-14T18:56:46.121Z,0.85
2023-04-14T18:59:34.912Z,0.82
2023-04-14T19:02:24.424Z,2.78
2023-04-14T19:05:13.498Z,4.68
2023-04-14T19:08:02.658Z,2.50
2023-04-14T19:10:51.933Z,2.70
2023-04-14T19:13:42.321Z,3.28
2023-04-14T19:16:31.227Z,2.05
2023-04-14T19:19:19.971Z,1.77
2023-04-14T19:22:09.160Z,2.22
2023-04-14T19:24:57.892Z,2.63
2023-04-14T19:27:47.005Z,4.25
2023-04-14T19:30:36.741Z,3.15
2023-04-14T19:33:26.992Z,3.35
2023-04-14T19:36:17.502Z,2.47
2023-04-14T19:39:06.456Z,2.95
2023-04-14T19:41:56.659Z,2.35
2023-04-14T19:44:45.482Z,2.72
2023-04-14T19:47:35.149Z,4.07
2023-04-14T19:50:24.197Z,2.25
2023-04-14T19:53:13.800Z,3.92
2023-04-14T19:56:05.667Z,2.95
2023-04-14T19:58:55.305Z,3.42
2023-04-14T20:01:45.434Z,2.17
2023-04-14T20:04:34.877Z,6.20
2023-04-14T20:07:24.234Z,1.20
2023-04-14T20:10:13.792Z,1.70
2023-04-14T20:13:03.887Z,1.98
2023-04-14T20:15:55.255Z,1.05
2023-04-14T20:18:45.736Z,3.47
2023-04-14T20:21:34.886Z,2.38
2023-04-14T20:24:24.039Z,1.65
2023-04-14T20:27:13.494Z,1.70
2023-04-14T20:30:02.991Z,1.50
2023-04-14T20:32:53.443Z,1.02
2023-04-14T20:35:43.563Z,2.28
2023-04-14T20:38:32.751Z,3.60
2023-04-14T20:41:21.755Z,1.23
2023-04-14T20:44:10.458Z,2.25
2023-04-14T20:46:59.921Z,2.72
2023-04-14T20:49:49.087Z,1.48
2023-04-14T20:52:37.773Z,1.88
2023-04-14T20:55:27.196Z,1.63
2023-04-14T20:58:16.200Z,0.57
2023-04-14T21:01:05.364Z,0.93
2023-04-14T21:03:55.034Z,1.85
2023-04-14T21:06:44.366Z,1.05
2023-04-14T21:09:33.177Z,1.85
2023-04-14T21:12:22.913Z,1.70
2023-04-14T21:15:48.019Z,2.03
2023-04-14T21:18:23.433Z,3.95
2023-04-14T21:21:13.093Z,1.50
2023-04-14T21:24:03.441Z,2.13
2023-04-14T21:26:51.909Z,1.25
2023-04-14T21:29:41.672Z,1.63
2023-04-14T21:32:30.404Z,1.58
2023-04-14T21:35:19.760Z,1.60
2023-04-14T21:38:09.828Z,0.90
2023-04-14T21:40:58.682Z,1.58
2023-04-14T21:43:48.246Z,1.75
2023-04-14T21:46:36.905Z,1.25
2023-04-14T21:49:25.939Z,2.05
2023-04-14T21:52:14.597Z,0.93
2023-04-14T21:55:03.690Z,0.32
2023-04-14T21:57:54.005Z,1.85
2023-04-14T22:00:43.289Z,0.50
2023-04-14T22:03:33.438Z,1.40
2023-04-14T22:06:21.796Z,0.57
2023-04-14T22:09:11.066Z,0.77
2023-04-14T22:12:00.432Z,0.80
2023-04-14T22:14:49.901Z,1.85
2023-04-14T22:17:39.221Z,1.08
2023-04-14T22:20:27.989Z,0.55
2023-04-14T22:23:16.848Z,1.70
2023-04-14T22:26:05.972Z,1.15
2023-04-14T22:28:55.112Z,1.88
2023-04-14T22:31:43.679Z,1.10
2023-04-14T22:34:32.957Z,0.70
2023-04-14T22:37:21.630Z,2.20
2023-04-14T22:40:11.526Z,0.50
2023-04-14T22:43:00.866Z,1.25
2023-04-14T22:45:49.811Z,1.00
2023-04-14T22:48:38.820Z,0.75
2023-04-14T22:51:27.236Z,0.77
2023-04-14T22:54:16.209Z,1.80
2023-04-14T22:57:05.427Z,1.30
2023-04-14T22:59:54.795Z,0.40
2023-04-14T23:02:45.729Z,0.75
2023-04-14T23:05:34.497Z,1.30
2023-04-14T23:08:22.756Z,1.35
2023-04-14T23:11:11.743Z,0.43
2023-04-14T23:14:01.119Z,0.30
2023-04-14T23:16:50.008Z,0.60
2023-04-14T23:19:39.394Z,0.52
2023-04-14T23:22:28.505Z,1.10
2023-04-14T23:25:17.416Z,0.30
2023-04-14T23:28:06.336Z,0.77
2023-04-14T23:30:56.005Z,0.75
2023-04-14T23:33:47.952Z,0.28
2023-04-14T23:36:37.688Z,0.60
2023-04-14T23:39:26.605Z,1.13
2023-04-14T23:42:15.987Z,0.85
2023-04-14T23:45:06.239Z,0.77
2023-04-14T23:47:56.106Z,0.40
2023-04-14T23:50:58.703Z,1.35
2023-04-14T23:53:49.913Z,0.40
2023-04-14T23:56:38.976Z,0.60
2023-04-14T23:59:27.693Z,1.20
